Time;durP1;ratioP1;P1;durP2;ratioP2;P2;SDS_P1;SDS_P2;PMS_P1;PMS_P2;Temp;Humidity;BMP_temperature;BMP_pressure;BME280_temperature;BME280_humidity;BME280_pressure;Samples;Min_cycle;Max_cycle;Signal;HPM_P1;HPM_P2
2021/09/30 00:02:24;;;;;;;6.95;1.00;;;;;;;7.01;79.10;98424.28;5029088;28;20022;-75
2021/09/30 00:04:49;;;;;;;2.42;0.90;;;;;;;7.20;78.66;98435.31;5024132;28;20091;-75
2021/09/30 00:07:14;;;;;;;1.58;0.70;;;;;;;7.01;79.09;98433.19;5032881;28;20291;-75
2021/09/30 00:09:44;;;;;;;2.35;0.70;;;;;;;7.00;78.82;98436.06;5005515;28;20134;-75
2021/09/30 00:12:16;;;;;;;2.70;0.70;;;;;;;6.72;79.61;98434.31;5039381;28;20033;-75
2021/09/30 00:14:54;;;;;;;0.80;0.50;;;;;;;6.68;80.19;98431.22;4996450;28;20606;-75
2021/09/30 00:33:53;;;;;;;2.65;0.90;;;;;;;6.26;80.36;98449.19;5037588;28;20055;-75
2021/09/30 00:48:02;;;;;;;2.55;0.77;;;;;;;5.91;81.12;98444.56;4989516;28;20084;-74
2021/09/30 00:50:07;;;;;;;2.28;0.90;;;;;;;5.88;81.39;98442.28;4940078;28;20054;-73
2021/09/30 00:53:02;;;;;;;3.53;0.90;;;;;;;5.73;81.50;98446.72;5001351;28;20053;-74
2021/09/30 01:21:33;;;;;;;1.55;0.73;;;;;;;5.52;82.00;98474.44;4952107;28;20034;-74
2021/09/30 02:58:56;;;;;;;2.85;1.00;;;;;;;4.78;83.76;98487.03;4984962;28;20037;-74
2021/09/30 03:01:23;;;;;;;1.35;0.68;;;;;;;4.73;83.78;98490.28;4980044;28;20054;-74
2021/09/30 03:03:48;;;;;;;2.17;1.05;;;;;;;4.70;83.87;98485.28;4950188;28;20031;-74
2021/09/30 03:06:14;;;;;;;2.42;1.13;;;;;;;4.63;84.47;98484.34;4961020;28;20029;-74
2021/09/30 03:08:45;;;;;;;3.38;1.40;;;;;;;4.59;84.38;98477.69;4986446;28;20070;-73
2021/09/30 03:11:12;;;;;;;2.08;1.00;;;;;;;4.63;84.58;98484.34;4961246;28;20030;-74
2021/09/30 03:13:39;;;;;;;3.30;1.50;;;;;;;4.60;84.46;98482.88;4972900;28;20034;-74
2021/09/30 03:16:31;;;;;;;4.60;1.70;;;;;;;4.60;84.41;98485.56;4980396;28;20806;-73
2021/09/30 03:18:57;;;;;;;3.65;1.45;;;;;;;4.66;84.49;98487.50;4991568;28;20524;-73
2021/09/30 03:24:10;;;;;;;6.68;1.50;;;;;;;4.54;84.57;98479.06;4991393;28;20399;-73
2021/09/30 03:26:37;;;;;;;4.25;1.40;;;;;;;4.61;84.63;98487.22;4969116;28;20608;-74
2021/09/30 03:29:02;;;;;;;2.25;1.10;;;;;;;4.65;84.80;98485.00;4969869;28;20038;-74
2021/09/30 03:31:30;;;;;;;5.75;1.45;;;;;;;4.67;84.37;98499.06;4970365;28;20392;-74
2021/09/30 03:33:56;;;;;;;3.80;1.30;;;;;;;4.60;85.14;98493.59;4984946;28;20068;-73
2021/09/30 03:36:21;;;;;;;2.70;1.58;;;;;;;4.65;84.94;98487.69;4990086;28;20033;-73
2021/09/30 03:38:47;;;;;;;2.50;1.13;;;;;;;4.73;84.75;98489.44;4978005;28;20408;-73
2021/09/30 03:41:12;;;;;;;2.50;1.05;;;;;;;4.70;85.02;98496.00;4988129;28;20161;-74
2021/09/30 03:43:38;;;;;;;2.97;1.17;;;;;;;4.64;84.59;98496.78;4988130;28;20032;-73
2021/09/30 03:46:03;;;;;;;3.58;1.15;;;;;;;4.63;84.93;98500.44;4972602;28;20033;-74
2021/09/30 03:48:28;;;;;;;6.53;1.63;;;;;;;4.52;85.20;98499.91;5004771;28;20063;-73
2021/09/30 04:01:27;;;;;;;4.68;1.50;;;;;;;4.67;84.95;98494.53;4995312;28;20125;-73
2021/09/30 04:03:52;;;;;;;2.28;1.20;;;;;;;4.72;85.30;98504.69;5000110;28;20110;-73
2021/09/30 04:06:18;;;;;;;4.68;1.38;;;;;;;4.84;85.32;98506.91;5001790;28;20022;-73
2021/09/30 04:08:45;;;;;;;2.38;1.33;;;;;;;4.93;84.95;98503.09;5003828;28;20022;-72
2021/09/30 04:11:10;;;;;;;2.00;1.20;;;;;;;4.96;84.87;98505.41;4966023;28;20066;-71
2021/09/30 04:13:36;;;;;;;3.20;1.40;;;;;;;5.03;84.84;98509.03;4986165;28;20542;-72
2021/09/30 04:16:01;;;;;;;5.80;1.42;;;;;;;5.03;84.84;98506.34;4986419;28;20041;-71
2021/09/30 04:18:27;;;;;;;4.43;1.58;;;;;;;5.08;84.58;98505.75;4967864;28;20036;-74
2021/09/30 04:20:52;;;;;;;4.25;1.15;;;;;;;5.00;84.54;98509.41;4970719;28;20543;-72
2021/09/30 04:23:18;;;;;;;2.03;1.15;;;;;;;5.00;84.70;98512.09;4968237;28;20746;-72
2021/09/30 04:25:44;;;;;;;3.40;1.20;;;;;;;5.14;84.60;98513.09;4985898;28;20026;-74
2021/09/30 04:28:09;;;;;;;3.05;1.30;;;;;;;5.11;84.51;98515.28;4997395;28;20065;-71
2021/09/30 04:30:35;;;;;;;2.78;1.08;;;;;;;5.10;84.42;98506.44;4955932;28;20491;-74
2021/09/30 04:33:00;;;;;;;2.70;1.08;;;;;;;5.13;84.43;98507.91;4978021;28;20519;-73
2021/09/30 04:35:25;;;;;;;4.20;1.30;;;;;;;5.18;84.16;98506.31;4976572;28;20121;-73
2021/09/30 04:37:51;;;;;;;3.40;1.40;;;;;;;5.16;84.22;98505.66;4989360;28;20115;-74
2021/09/30 04:40:16;;;;;;;5.82;2.28;;;;;;;5.18;83.95;98500.09;4967936;28;20141;-74
2021/09/30 04:42:41;;;;;;;2.80;1.17;;;;;;;5.18;83.97;98503.63;4968148;28;20038;-72
2021/09/30 04:45:08;;;;;;;3.70;1.40;;;;;;;5.18;84.03;98502.78;4985556;28;20061;-72
2021/09/30 04:47:33;;;;;;;3.65;1.35;;;;;;;5.18;84.18;98502.78;4986272;28;20866;-72
2021/09/30 04:49:58;;;;;;;2.78;1.55;;;;;;;5.17;83.96;98499.25;4986519;28;20023;-72
2021/09/30 04:52:24;;;;;;;4.28;1.67;;;;;;;5.20;84.08;98514.19;4969030;28;20166;-74
2021/09/30 04:54:50;;;;;;;4.88;1.70;;;;;;;5.20;84.06;98506.94;4985195;28;20082;-71
2021/09/30 04:57:16;;;;;;;3.50;1.40;;;;;;;5.19;84.16;98505.28;4967541;28;20034;-72
2021/09/30 04:59:41;;;;;;;4.15;1.88;;;;;;;5.25;83.86;98502.84;4968215;28;20031;-73
2021/09/30 05:02:06;;;;;;;4.70;1.10;;;;;;;5.25;83.67;98509.06;4984603;28;20069;-73
2021/09/30 05:04:32;;;;;;;3.55;1.30;;;;;;;5.28;83.53;98508.69;4965772;28;20096;-73
2021/09/30 05:06:59;;;;;;;3.10;1.52;;;;;;;5.30;83.68;98508.50;4975001;28;20034;-72
2021/09/30 05:09:25;;;;;;;4.82;1.60;;;;;;;5.23;83.72;98504.91;4966101;28;20037;-73
2021/09/30 05:11:52;;;;;;;3.10;1.20;;;;;;;5.26;83.59;98516.09;4964801;28;20415;-73
2021/09/30 05:14:18;;;;;;;1.42;1.00;;;;;;;5.27;83.66;98519.63;4983096;28;20022;-73
2021/09/30 05:16:43;;;;;;;3.65;1.77;;;;;;;5.20;83.64;98512.31;4949722;28;20522;-73
2021/09/30 05:19:09;;;;;;;2.50;1.38;;;;;;;5.14;83.73;98529.19;4975876;28;20293;-73
2021/09/30 05:21:34;;;;;;;2.22;1.42;;;;;;;5.10;83.79;98532.44;4985024;28;20041;-73
2021/09/30 05:24:00;;;;;;;6.63;1.27;;;;;;;5.01;84.18;98529.84;4976633;28;20034;-72
2021/09/30 05:26:28;;;;;;;2.35;1.30;;;;;;;5.03;83.93;98532.34;4968095;28;20070;-73
2021/09/30 05:28:57;;;;;;;4.50;1.83;;;;;;;4.98;84.12;98543.66;4971130;28;20050;-73
2021/09/30 05:31:23;;;;;;;3.08;1.25;;;;;;;4.97;84.30;98535.78;4950896;28;20104;-73
2021/09/30 05:33:49;;;;;;;4.78;1.60;;;;;;;4.90;84.34;98543.75;4969976;28;20555;-73
2021/09/30 05:36:14;;;;;;;3.63;1.70;;;;;;;4.86;84.40;98547.84;4985341;28;20061;-73
2021/09/30 05:38:39;;;;;;;5.20;1.58;;;;;;;4.92;84.22;98549.75;4962793;28;20034;-73
2021/09/30 05:41:05;;;;;;;4.85;1.70;;;;;;;4.99;83.93;98549.84;4988348;28;20752;-73
2021/09/30 05:43:34;;;;;;;6.07;1.83;;;;;;;5.02;83.65;98539.56;4992048;28;20468;-73
2021/09/30 05:46:00;;;;;;;2.85;1.38;;;;;;;5.03;83.75;98548.44;4973135;28;20537;-73
2021/09/30 05:48:26;;;;;;;5.55;1.58;;;;;;;4.82;83.93;98556.25;4982057;28;20035;-73
2021/09/30 05:50:52;;;;;;;3.58;1.80;;;;;;;4.84;83.68;98555.22;4969545;28;20037;-73
2021/09/30 05:53:18;;;;;;;4.05;1.60;;;;;;;4.80;83.32;98552.09;4958046;28;20033;-73
2021/09/30 05:55:44;;;;;;;4.30;1.58;;;;;;;4.65;83.83;98554.75;4968845;28;20030;-73
2021/09/30 05:58:10;;;;;;;4.75;1.50;;;;;;;4.74;83.31;98555.50;4971986;28;20252;-73
2021/09/30 06:16:31;;;;;;;3.30;1.40;;;;;;;4.71;84.00;98569.28;4970325;28;20659;-73
2021/09/30 06:18:56;;;;;;;3.40;1.52;;;;;;;4.73;83.61;98578.81;4977853;28;20034;-73
2021/09/30 06:21:22;;;;;;;2.60;1.48;;;;;;;4.77;84.24;98577.44;4952607;28;20583;-73
2021/09/30 06:23:47;;;;;;;7.07;1.60;;;;;;;4.82;83.79;98583.09;4985854;28;20064;-73
2021/09/30 06:26:12;;;;;;;3.22;1.55;;;;;;;4.88;83.81;98578.84;4983806;28;20515;-74
2021/09/30 06:28:38;;;;;;;2.78;1.48;;;;;;;4.87;83.88;98576.31;4986103;28;20026;-72
2021/09/30 06:31:04;;;;;;;4.70;1.63;;;;;;;4.90;83.83;98582.16;4968371;28;20034;-72
2021/09/30 06:33:30;;;;;;;4.25;2.00;;;;;;;4.96;83.79;98583.25;4981013;28;20035;-72
2021/09/30 06:35:56;;;;;;;5.57;2.13;;;;;;;4.97;84.05;98579.56;4981988;23;20042;-74
2021/09/30 06:38:21;;;;;;;3.55;1.75;;;;;;;5.03;84.14;98573.47;4988534;28;20034;-74
2021/09/30 06:40:47;;;;;;;5.22;1.73;;;;;;;5.19;83.77;98579.63;4989451;28;20029;-74
2021/09/30 06:43:12;;;;;;;5.13;1.67;;;;;;;5.30;83.68;98568.41;5006429;28;20503;-74
2021/09/30 06:45:37;;;;;;;7.55;2.00;;;;;;;5.41;83.62;98579.69;4988319;28;20418;-74
2021/09/30 06:48:03;;;;;;;3.67;2.00;;;;;;;5.51;83.31;98588.28;4987820;28;20034;-74
2021/09/30 06:50:29;;;;;;;3.35;1.67;;;;;;;5.69;83.22;98587.03;4970106;28;20085;-74
2021/09/30 06:52:54;;;;;;;2.97;1.45;;;;;;;5.84;82.80;98595.91;4961888;28;20026;-74
2021/09/30 06:55:20;;;;;;;4.88;1.67;;;;;;;5.98;82.04;98596.03;4959097;28;20652;-74
2021/09/30 06:57:46;;;;;;;3.97;1.50;;;;;;;6.14;81.81;98597.66;4947794;28;20061;-74
2021/09/30 07:00:12;;;;;;;6.13;2.03;;;;;;;6.28;81.34;98603.97;4971095;28;20543;-74
2021/09/30 07:02:39;;;;;;;7.03;1.73;;;;;;;6.35;81.28;98604.84;4955555;28;20070;-74
2021/09/30 07:05:05;;;;;;;3.17;1.45;;;;;;;6.53;80.88;98602.72;4953657;28;20109;-73
2021/09/30 07:07:31;;;;;;;3.35;1.25;;;;;;;6.67;80.56;98599.09;4958141;28;20378;-73
2021/09/30 07:09:56;;;;;;;2.90;1.38;;;;;;;6.82;79.76;98607.06;4966472;28;20084;-70
2021/09/30 07:12:22;;;;;;;2.70;1.38;;;;;;;6.86;79.45;98605.66;4975111;28;20441;-70
2021/09/30 07:14:47;;;;;;;7.13;1.55;;;;;;;7.01;79.61;98604.72;4975481;28;20027;-71
2021/09/30 07:17:12;;;;;;;3.45;1.17;;;;;;;7.15;78.50;98606.44;4958180;28;20591;-73
2021/09/30 07:19:38;;;;;;;1.80;0.68;;;;;;;7.27;77.79;98609.38;4976115;28;20054;-73
2021/09/30 07:22:05;;;;;;;5.65;1.30;;;;;;;7.35;77.72;98615.66;4963766;28;20352;-74
2021/09/30 07:24:31;;;;;;;2.65;1.23;;;;;;;7.46;77.07;98609.69;4951047;28;20416;-73
2021/09/30 07:26:57;;;;;;;3.58;1.30;;;;;;;7.62;77.49;98607.66;4947112;28;20061;-73
2021/09/30 07:29:22;;;;;;;2.20;0.98;;;;;;;7.89;76.62;98610.47;4960387;28;20034;-74
2021/09/30 07:31:48;;;;;;;2.10;0.98;;;;;;;7.93;75.23;98612.53;4970353;28;20038;-73
2021/09/30 07:34:13;;;;;;;5.90;1.30;;;;;;;8.25;74.78;98614.66;4967857;28;20738;-73
2021/09/30 07:36:40;;;;;;;1.38;0.85;;;;;;;8.53;73.00;98612.84;4967466;28;20088;-73
2021/09/30 07:39:06;;;;;;;1.73;0.70;;;;;;;8.87;71.81;98618.19;4965354;28;20089;-74
2021/09/30 07:41:31;;;;;;;3.17;0.82;;;;;;;9.30;71.02;98622.28;4964988;28;20490;-74
2021/09/30 07:43:56;;;;;;;3.33;0.82;;;;;;;9.59;70.20;98609.28;4963021;28;20044;-73
2021/09/30 07:46:22;;;;;;;3.30;0.73;;;;;;;9.96;68.36;98616.78;4978945;28;20035;-74
2021/09/30 07:48:47;;;;;;;2.75;0.85;;;;;;;10.34;67.77;98612.38;4970040;28;20097;-74
2021/09/30 07:51:12;;;;;;;2.60;0.70;;;;;;;10.37;68.12;98610.06;4993330;28;20547;-74
2021/09/30 07:53:38;;;;;;;3.28;0.93;;;;;;;10.58;67.14;98612.63;4949963;28;20172;-74
2021/09/30 07:56:04;;;;;;;1.58;0.50;;;;;;;10.79;65.10;98612.25;4946713;28;20073;-74
2021/09/30 07:58:29;;;;;;;4.25;1.00;;;;;;;11.11;65.86;98614.00;4943156;28;20066;-74
2021/09/30 08:00:54;;;;;;;6.30;0.90;;;;;;;11.08;62.33;98610.91;4966793;28;20463;-74
2021/09/30 08:03:20;;;;;;;3.47;0.70;;;;;;;11.33;64.07;98608.16;4975252;28;20073;-74
2021/09/30 08:05:45;;;;;;;3.55;0.70;;;;;;;11.82;61.61;98608.16;4976894;28;20065;-74
2021/09/30 08:08:11;;;;;;;3.63;1.08;;;;;;;12.02;61.85;98604.31;4984178;28;20022;-75
2021/09/30 08:10:37;;;;;;;2.25;0.80;;;;;;;12.09;60.93;98610.53;4978090;28;20754;-74
2021/09/30 08:13:03;;;;;;;1.05;0.40;;;;;;;12.52;59.03;98601.50;4966694;28;20049;-74
2021/09/30 08:15:30;;;;;;;3.70;1.13;;;;;;;12.37;60.70;98597.38;4971458;28;20033;-74
2021/09/30 08:17:56;;;;;;;4.88;0.60;;;;;;;12.47;59.24;98602.22;4971778;28;20460;-74
2021/09/30 08:20:22;;;;;;;2.83;0.50;;;;;;;12.24;58.95;98603.84;4962723;28;20050;-74
2021/09/30 08:22:48;;;;;;;4.75;0.70;;;;;;;12.05;59.82;98603.91;4959700;28;20051;-74
2021/09/30 08:25:13;;;;;;;2.83;0.55;;;;;;;12.03;60.19;98600.56;4980332;28;20030;-74
2021/09/30 08:27:39;;;;;;;5.22;0.60;;;;;;;12.22;59.94;98603.25;4975499;28;20053;-73
2021/09/30 08:30:05;;;;;;;1.60;0.63;;;;;;;12.23;60.52;98604.88;4960740;28;20036;-74
2021/09/30 08:32:30;;;;;;;3.08;0.88;;;;;;;12.45;59.23;98601.63;4960519;28;20405;-74
2021/09/30 08:34:55;;;;;;;3.45;0.82;;;;;;;12.65;57.69;98604.03;4999981;28;20041;-73
2021/09/30 08:37:21;;;;;;;2.88;0.50;;;;;;;12.50;56.73;98604.50;4988197;28;20057;-74
2021/09/30 08:39:46;;;;;;;4.88;0.60;;;;;;;12.29;57.39;98608.56;4985518;28;20112;-74
2021/09/30 08:42:12;;;;;;;4.50;0.65;;;;;;;11.99;58.24;98601.25;4988160;28;20041;-74
2021/09/30 08:44:37;;;;;;;2.83;0.55;;;;;;;12.12;58.99;98590.22;5016486;28;20032;-74
2021/09/30 08:47:03;;;;;;;4.32;1.20;;;;;;;12.29;57.16;98597.69;5000768;28;20475;-74
2021/09/30 08:49:29;;;;;;;2.20;0.47;;;;;;;12.60;53.19;98591.13;4988512;28;20022;-74
2021/09/30 08:51:54;;;;;;;1.70;0.43;;;;;;;12.00;53.47;98583.91;4995907;28;20725;-74
2021/09/30 08:54:20;;;;;;;1.38;0.32;;;;;;;11.73;53.00;98587.84;4996564;28;20026;-74
2021/09/30 08:56:45;;;;;;;2.35;0.47;;;;;;;12.26;53.25;98592.72;4984187;28;20037;-74
2021/09/30 08:59:32;;;;;;;1.90;0.60;;;;;;;12.96;52.55;98591.16;4996813;28;20025;-74
2021/09/30 09:02:07;;;;;;;5.07;0.70;;;;;;;13.42;52.87;98587.78;4995955;28;20053;-74
2021/09/30 09:04:32;;;;;;;3.55;0.70;;;;;;;13.55;51.44;98589.41;4994613;28;20025;-74
2021/09/30 09:07:06;;;;;;;3.95;0.57;;;;;;;13.81;49.72;98584.47;4978874;28;20492;-74
2021/09/30 09:09:32;;;;;;;1.63;0.40;;;;;;;12.98;51.75;98583.56;4984093;28;20057;-74
2021/09/30 09:12:08;;;;;;;3.97;0.70;;;;;;;12.81;52.51;98588.91;4982877;28;20068;-74
2021/09/30 09:14:38;;;;;;;1.13;0.40;;;;;;;12.37;53.65;98581.06;4988672;28;20034;-74
2021/09/30 09:17:12;;;;;;;1.58;0.30;;;;;;;12.44;53.00;98589.94;4996416;28;20022;-74
2021/09/30 09:19:40;;;;;;;5.13;0.80;;;;;;;12.10;52.34;98587.72;4991576;28;20014;-74
2021/09/30 09:22:09;;;;;;;1.88;0.43;;;;;;;11.66;51.40;98584.38;5006094;28;20025;-74
2021/09/30 09:24:35;;;;;;;1.92;0.65;;;;;;;11.37;53.85;98595.78;4989950;28;20644;-73
2021/09/30 09:27:01;;;;;;;2.22;0.50;;;;;;;11.22;54.64;98593.47;4994363;28;20084;-74
2021/09/30 09:29:31;;;;;;;2.67;0.88;;;;;;;11.33;55.46;98589.16;4972149;28;20084;-74
2021/09/30 09:32:03;;;;;;;2.42;0.80;;;;;;;11.96;54.66;98588.97;4982107;28;20037;-74
2021/09/30 09:34:37;;;;;;;5.30;0.70;;;;;;;12.54;51.55;98580.38;5000613;28;20076;-70
2021/09/30 09:37:37;;;;;;;1.80;0.40;;;;;;;13.49;48.83;98585.75;5007504;28;20042;-71
2021/09/30 09:40:18;;;;;;;2.65;0.68;;;;;;;13.50;49.22;98581.94;4984198;28;20034;-71
2021/09/30 09:42:44;;;;;;;3.58;0.98;;;;;;;13.88;47.63;98574.25;4999889;28;20356;-71
2021/09/30 09:45:11;;;;;;;1.70;0.40;;;;;;;14.29;48.33;98571.41;4977002;28;20352;-71
2021/09/30 09:47:38;;;;;;;4.32;0.68;;;;;;;14.33;47.49;98565.50;4978868;28;20084;-71
2021/09/30 09:50:17;;;;;;;2.42;0.40;;;;;;;14.72;42.70;98568.28;4986801;28;20058;-71
2021/09/30 09:52:52;;;;;;;3.40;0.40;;;;;;;14.51;43.03;98564.38;4991156;28;20064;-71
2021/09/30 09:55:35;;;;;;;2.28;0.40;;;;;;;14.81;43.06;98561.34;4973291;28;20026;-71
2021/09/30 09:58:05;;;;;;;1.45;0.30;;;;;;;14.61;44.03;98563.72;4977518;28;20053;-71
2021/09/30 10:00:33;;;;;;;1.67;0.40;;;;;;;14.88;41.73;98565.78;4994690;28;20554;-71
2021/09/30 10:03:23;;;;;;;3.22;0.50;;;;;;;15.43;40.62;98555.88;4985570;28;20069;-71
2021/09/30 10:05:49;;;;;;;3.45;0.50;;;;;;;15.56;40.92;98554.63;4984728;28;20080;-70
2021/09/30 10:08:16;;;;;;;0.95;0.20;;;;;;;14.93;42.17;98553.06;5003866;28;20495;-71
2021/09/30 10:10:42;;;;;;;2.45;0.32;;;;;;;15.38;42.63;98544.06;5001098;28;20049;-70
2021/09/30 10:13:08;;;;;;;1.75;0.30;;;;;;;15.30;42.00;98545.34;4990488;28;20101;-71
2021/09/30 10:15:35;;;;;;;3.10;0.35;;;;;;;14.99;41.99;98540.31;5010323;28;20068;-71
2021/09/30 10:18:06;;;;;;;2.08;0.40;;;;;;;15.52;42.41;98533.59;4996622;28;20057;-71
2021/09/30 10:20:32;;;;;;;1.80;0.50;;;;;;;15.08;42.21;98538.00;5008319;28;20025;-71
2021/09/30 10:22:58;;;;;;;3.05;0.38;;;;;;;15.04;44.49;98532.19;4998238;28;20095;-71
2021/09/30 10:25:31;;;;;;;2.80;1.27;;;;;;;14.70;41.83;98543.97;4994972;28;20032;-71
2021/09/30 10:27:58;;;;;;;3.03;0.30;;;;;;;14.65;42.92;98535.75;4982312;28;20026;-71
2021/09/30 10:30:38;;;;;;;3.50;0.60;;;;;;;14.77;42.95;98532.94;4992944;28;20038;-71
2021/09/30 10:33:05;;;;;;;0.35;0.20;;;;;;;14.98;42.97;98532.38;4999518;28;20689;-72
2021/09/30 10:35:36;;;;;;;2.92;0.50;;;;;;;14.76;43.74;98530.41;5020715;28;20037;-71
2021/09/30 10:38:22;;;;;;;2.83;0.40;;;;;;;15.21;41.77;98528.59;4984660;28;20041;-71
2021/09/30 10:41:02;;;;;;;2.55;0.38;;;;;;;14.99;42.15;98531.28;4997381;28;20076;-71
2021/09/30 10:43:29;;;;;;;2.65;0.45;;;;;;;14.63;42.03;98537.06;4989980;28;20046;-72
2021/09/30 10:45:55;;;;;;;2.10;0.40;;;;;;;14.70;41.40;98532.25;4997342;28;20036;-71
2021/09/30 10:48:23;;;;;;;1.38;0.50;;;;;;;15.45;41.91;98531.88;4983626;28;20034;-71
2021/09/30 10:51:00;;;;;;;2.25;0.30;;;;;;;16.06;41.41;98523.75;4987402;28;20030;-71
2021/09/30 10:53:47;;;;;;;1.50;0.32;;;;;;;16.57;40.34;98519.78;4997945;28;20042;-71
2021/09/30 10:56:26;;;;;;;2.58;0.40;;;;;;;16.98;37.33;98532.88;5001253;28;20109;-72
2021/09/30 10:58:52;;;;;;;3.83;0.55;;;;;;;16.20;37.44;98529.63;5011783;28;20025;-72
2021/09/30 11:01:17;;;;;;;2.78;0.32;;;;;;;15.82;37.60;98530.34;5001389;28;20034;-71
2021/09/30 11:03:59;;;;;;;2.28;0.50;;;;;;;16.34;37.93;98528.13;5004508;28;20041;-71
2021/09/30 11:06:26;;;;;;;3.53;0.43;;;;;;;16.46;38.88;98524.34;4994592;28;20141;-72
2021/09/30 11:09:15;;;;;;;1.55;0.35;;;;;;;16.28;39.61;98525.59;4988150;28;20040;-71
2021/09/30 11:11:42;;;;;;;3.00;0.47;;;;;;;16.74;37.13;98531.38;5016661;28;20068;-71
2021/09/30 11:14:07;;;;;;;2.28;0.30;;;;;;;16.57;37.61;98526.06;4993918;28;20029;-72
2021/09/30 11:16:37;;;;;;;1.73;0.17;;;;;;;16.84;36.40;98527.06;5015056;28;20079;-71
2021/09/30 11:19:03;;;;;;;27.08;14.60;;;;;;;16.46;37.12;98527.09;4975212;28;20267;-71
2021/09/30 11:21:29;;;;;;;7.70;2.35;;;;;;;16.46;37.93;98525.19;4982535;28;20018;-71
2021/09/30 11:24:01;;;;;;;1.08;0.40;;;;;;;16.98;38.50;98513.72;5010772;28;20033;-72
2021/09/30 11:26:32;;;;;;;2.35;0.68;;;;;;;17.54;36.18;98515.06;4998482;28;20033;-72
2021/09/30 11:29:20;;;;;;;1.85;0.60;;;;;;;16.55;36.48;98508.28;4987695;28;20457;-71
2021/09/30 11:31:47;;;;;;;1.85;0.40;;;;;;;17.21;35.62;98512.47;5004849;28;20040;-72
2021/09/30 11:34:22;;;;;;;2.40;0.43;;;;;;;17.24;35.48;98505.66;4984104;28;20395;-72
2021/09/30 11:36:48;;;;;;;2.35;0.40;;;;;;;16.44;37.31;98508.22;4987970;28;20515;-72
2021/09/30 11:39:13;;;;;;;2.63;0.50;;;;;;;16.86;37.32;98497.53;4977823;28;20109;-72
2021/09/30 11:41:43;;;;;;;9.18;4.00;;;;;;;17.55;37.30;98494.81;4981643;28;20037;-72
2021/09/30 11:44:20;;;;;;;2.35;0.75;;;;;;;17.51;36.81;98494.50;4978548;28;20030;-72
2021/09/30 11:46:53;;;;;;;1.98;0.50;;;;;;;17.32;36.69;98487.91;5000976;28;20029;-72
2021/09/30 11:49:19;;;;;;;3.35;0.52;;;;;;;17.09;35.23;98490.00;4979524;28;20023;-72
2021/09/30 11:51:49;;;;;;;3.30;0.40;;;;;;;16.67;36.64;98483.47;4993515;28;20044;-72
2021/09/30 11:54:19;;;;;;;1.88;0.15;;;;;;;16.55;37.34;98478.22;4984497;28;20033;-72
2021/09/30 11:56:53;;;;;;;2.17;0.37;;;;;;;16.67;38.32;98472.53;5001729;28;20037;-72
2021/09/30 11:59:23;;;;;;;2.33;0.50;;;;;;;17.45;36.61;98472.88;4986182;28;20021;-72
2021/09/30 12:01:50;;;;;;;3.33;0.50;;;;;;;17.74;36.10;98459.50;4979744;28;20030;-73
2021/09/30 12:07:27;;;;;;;2.00;0.30;;;;;;;-148.22;100.00;64452.44;5010932;28;20085;-76
2021/09/30 12:09:58;;;;;;;0.43;0.13;;;;;;;-148.22;100.00;64452.44;4978968;28;20033;-75
2021/09/30 12:12:29;;;;;;;2.75;0.50;;;;;;;-148.22;100.00;64452.44;4986845;28;20038;-78
2021/09/30 12:14:57;;;;;;;3.42;0.75;;;;;;;-148.22;100.00;64452.44;4973272;28;20054;-75
2021/09/30 12:17:23;;;;;;;2.17;0.35;;;;;;;-148.22;100.00;64452.44;4965702;28;20030;-75
2021/09/30 12:19:49;;;;;;;2.22;0.40;;;;;;;-148.22;100.00;64452.44;4969261;28;20018;-76
2021/09/30 12:22:17;;;;;;;2.83;0.40;;;;;;;-148.22;100.00;64452.44;4984222;28;20045;-76
2021/09/30 12:24:48;;;;;;;2.38;0.68;;;;;;;-148.22;100.00;64452.44;4993578;28;20075;-76
2021/09/30 12:27:14;;;;;;;2.38;0.63;;;;;;;-148.22;100.00;64452.44;5009661;28;20033;-76
2021/09/30 12:29:50;;;;;;;3.95;0.47;;;;;;;-148.22;100.00;64452.44;4992254;28;20112;-75
2021/09/30 12:32:19;;;;;;;1.25;0.30;;;;;;;-148.22;100.00;64452.44;4978010;28;20018;-76
2021/09/30 12:34:54;;;;;;;2.25;0.50;;;;;;;-148.22;100.00;64452.44;4988446;28;20034;-76
2021/09/30 12:37:31;;;;;;;1.65;0.30;;;;;;;-148.22;100.00;64452.44;5003437;23;20050;-73
2021/09/30 12:40:05;;;;;;;1.25;0.30;;;;;;;-148.22;100.00;64452.44;5012546;28;20048;-73
2021/09/30 12:42:31;;;;;;;1.73;0.30;;;;;;;-148.22;100.00;64452.44;5004077;28;20029;-73
2021/09/30 12:44:57;;;;;;;2.47;0.50;;;;;;;-148.22;100.00;64452.44;5022748;28;20064;-73
2021/09/30 12:47:34;;;;;;;3.00;0.45;;;;;;;-148.22;100.00;64452.44;4992315;28;20057;-73
2021/09/30 12:50:09;;;;;;;2.33;0.50;;;;;;;-148.22;100.00;64452.44;4986763;28;20038;-73
2021/09/30 12:52:37;;;;;;;2.42;0.40;;;;;;;-148.22;100.00;64452.44;4985971;28;20511;-73
2021/09/30 12:55:24;;;;;;;2.30;0.40;;;;;;;-148.22;100.00;64452.44;4966031;28;20145;-73
2021/09/30 12:57:50;;;;;;;1.05;0.20;;;;;;;-148.22;100.00;64452.44;4983702;28;20165;-73
2021/09/30 13:00:17;;;;;;;2.17;1.08;;;;;;;-148.22;100.00;64452.44;4984403;28;20591;-72
2021/09/30 13:02:44;;;;;;;3.08;0.80;;;;;;;-148.22;100.00;64452.44;4993698;28;20030;-72
2021/09/30 13:05:10;;;;;;;1.65;0.30;;;;;;;-148.22;100.00;64452.44;4989772;28;20660;-71
2021/09/30 13:07:45;;;;;;;1.00;0.30;;;;;;;-148.22;100.00;64452.44;5001161;28;20064;-72
2021/09/30 13:10:11;;;;;;;3.85;0.75;;;;;;;-148.22;100.00;64452.44;4989585;28;20410;-73
2021/09/30 13:12:36;;;;;;;2.25;0.40;;;;;;;-148.22;100.00;64452.44;4985789;28;20132;-73
2021/09/30 13:15:04;;;;;;;3.90;0.68;;;;;;;-148.22;100.00;64452.44;4992225;28;20117;-72
2021/09/30 13:17:30;;;;;;;1.92;0.30;;;;;;;-148.22;100.00;64452.44;4984730;28;20497;-73
2021/09/30 13:20:06;;;;;;;3.80;0.60;;;;;;;-148.22;100.00;64452.44;5001524;28;20022;-73
2021/09/30 13:22:37;;;;;;;1.52;0.50;;;;;;;-148.22;100.00;64452.44;4992640;28;20096;-73
2021/09/30 13:25:12;;;;;;;1.55;0.30;;;;;;;-148.22;100.00;64452.44;4997963;28;20034;-72
2021/09/30 13:27:40;;;;;;;2.28;0.57;;;;;;;-148.22;100.00;64452.44;4996520;28;20105;-73
2021/09/30 13:30:11;;;;;;;2.83;0.57;;;;;;;-148.22;100.00;64452.44;4980872;28;20093;-73
2021/09/30 13:32:37;;;;;;;3.22;0.60;;;;;;;-148.22;100.00;64452.44;4985203;28;20851;-72
2021/09/30 13:35:04;;;;;;;3.00;0.60;;;;;;;-148.22;100.00;64452.44;4981708;28;20096;-72
2021/09/30 13:37:29;;;;;;;1.85;0.40;;;;;;;-148.22;100.00;64452.44;4982825;28;20030;-74
2021/09/30 13:40:00;;;;;;;2.17;0.65;;;;;;;-148.22;100.00;64452.44;4982277;28;20031;-73
2021/09/30 13:42:27;;;;;;;2.97;0.40;;;;;;;-148.22;100.00;64452.44;4981419;28;20037;-74
2021/09/30 13:44:54;;;;;;;1.85;0.30;;;;;;;-148.22;100.00;64452.44;4984553;28;20507;-73
2021/09/30 13:47:19;;;;;;;1.88;0.25;;;;;;;-148.22;100.00;64452.44;4981341;28;20061;-73
2021/09/30 13:49:45;;;;;;;2.08;0.43;;;;;;;-148.22;100.00;64452.44;4980827;28;20061;-72
2021/09/30 13:52:11;;;;;;;1.50;0.50;;;;;;;-148.22;100.00;64452.44;4983954;28;20023;-72
2021/09/30 13:54:36;;;;;;;1.83;0.45;;;;;;;-148.22;100.00;64452.44;4985822;28;20065;-73
2021/09/30 13:57:02;;;;;;;3.80;0.70;;;;;;;-148.22;100.00;64452.44;4986595;28;20037;-73
2021/09/30 13:59:27;;;;;;;3.67;0.57;;;;;;;-148.22;100.00;64452.44;4987077;28;20030;-72
2021/09/30 14:01:52;;;;;;;1.88;0.40;;;;;;;-148.22;100.00;64452.44;4988919;28;20026;-73
2021/09/30 14:04:18;;;;;;;1.00;0.40;;;;;;;-148.22;100.00;64452.44;4986306;28;20033;-73
2021/09/30 14:06:43;;;;;;;1.15;0.50;;;;;;;-148.22;100.00;64452.44;4991019;28;20028;-71
2021/09/30 14:09:09;;;;;;;1.98;0.45;;;;;;;-148.22;100.00;64452.44;4991222;28;20037;-72
2021/09/30 14:11:35;;;;;;;1.42;0.40;;;;;;;-148.22;100.00;64452.44;4984831;28;20531;-72
2021/09/30 14:14:00;;;;;;;3.50;1.00;;;;;;;-148.22;100.00;64452.44;5001134;28;20399;-72
2021/09/30 14:16:26;;;;;;;3.00;0.40;;;;;;;-148.22;100.00;64452.44;4986468;28;20065;-71
2021/09/30 14:18:51;;;;;;;1.48;0.30;;;;;;;-148.22;100.00;64452.44;4985635;28;20026;-72
2021/09/30 14:21:17;;;;;;;2.20;0.57;;;;;;;-148.22;100.00;64452.44;4984107;28;20050;-72
2021/09/30 14:23:43;;;;;;;3.00;0.45;;;;;;;-148.22;100.00;64452.44;4984424;28;20034;-72
2021/09/30 14:26:09;;;;;;;2.17;0.60;;;;;;;-148.22;100.00;64452.44;4985811;28;20451;-72
2021/09/30 14:28:34;;;;;;;2.10;0.60;;;;;;;-148.22;100.00;64452.44;4968567;28;20038;-72
2021/09/30 14:31:00;;;;;;;2.60;0.60;;;;;;;-148.22;100.00;64452.44;4983360;28;20678;-72
2021/09/30 14:33:27;;;;;;;3.03;0.50;;;;;;;-148.22;100.00;64452.44;4983534;28;20026;-71
2021/09/30 14:35:53;;;;;;;4.40;0.50;;;;;;;-148.22;100.00;64452.44;4984477;28;20038;-71
2021/09/30 14:38:19;;;;;;;3.25;0.73;;;;;;;-148.22;100.00;64452.44;4982972;28;20022;-71